Gustavsfors, Sweden

1:50 AM CEST on September 24, 2014 (GMT +0200)
Jonsarna, Ransbysatter, Varmland, Sweden | Change Station
CLOSE
Current Station
Personal Weather Station
Location: Värmland County, VäRMLAND COUNTY
Elevation: 427 ft
Nearby Weather Stations

Elev 427 ft 60.03 °N, 13.24 °E | Updated 3 minutes ago

Overcast
Overcast
41.2 °F
Feels Like 41 °F
N
0.0
Wind Variable Wind from North
Gusts 1.0 mph

Today
High -- | Low -- °F
--% Chance of Precip.
Yesterday
High -- | Low -- °F
Precip. -- in
6:53 AM 6:59 PM
Waning Crescent, 0% visible
Pressure 29.83 in
Visibility 6.2 miles
Clouds Overcast 800 ft
Windchill 41 °F
Dew Point 36 °F
Humidity 83%
Rainfall 0.00 in
Snow Depth Not available.
UV 0.0 out of 12
Pollen Not available.
Air Quality Not available.
Flu Activity Not available.
METAR ESOK 232320Z AUTO 06006KT 9999 OVC008/// 06/04 Q1010

More Conditions Fewer Conditions

Pressure 29.83 in
Visibility 6.2 miles
Clouds Overcast 800 ft
Windchill 41 °F
Dew Point 36 °F
Humidity 83%
Rainfall 0.00 in
Snow Depth Not available.
UV 0.0 out of 12
Pollen Not available.
Air Quality Not available.
Flu Activity Not available.
METAR ESOK 232320Z AUTO 06006KT 9999 OVC008/// 06/04 Q1010

More Conditions Fewer Conditions

10-Day Weather Forecast

Almanac

Astronomy

Sep. 24, 2014 Rise Set
Actual Time 6:53 AM CEST 6:59 PM CEST
Civil Twilight 6:11 AM CEST 7:40 PM CEST
Nautical Twilight 5:21 AM CEST 8:30 PM CEST
Astronomical Twilight 4:26 AM CEST 9:24 PM CEST
Moon 7:05 AM CEST (9/24) 6:46 PM CEST (9/24)
Length of Visible Light 13h 29m
Length of Day
12h 05m
Tomorrow will be 5m 26s shorter.
Waning Crescent, 0% of the Moon is Illuminated
Sep 23
Waning Crescent
Sep 24
New
Oct 1
First Quarter
Oct 8
Full
Oct 15
Last Quarter

Yesterday's Extremes

Country Highs Country Lows

Community

WunderPhotos

Upload Photos

1,755,821 photos uploaded!

WunderBlogs® & News

Nearby

Snow Depth

Not available.

Earthquake Activity

City Distance Mag. Time & Date
No recent earthquake activity has been reported nearby.
Minimum magnitude displayed is 2.5.

Coastal Water Temperatures

Place Temperature
No Stations Reporting

Nearby Weather Stations